sensor_id;sensor_type;location;lat;lon;timestamp;pressure;altitude;pressure_sealevel;temperature;humidity
33859;BME280;20156;47.486;12.074;2023-10-09T00:01:40;95669.75;;;12.33;100.00
33859;BME280;20156;47.486;12.074;2023-10-09T00:04:10;95675.16;;;12.32;100.00
33859;BME280;20156;47.486;12.074;2023-10-09T00:06:36;95707.47;;;11.98;100.00
33859;BME280;20156;47.486;12.074;2023-10-09T00:09:06;95710.06;;;11.98;100.00
33859;BME280;20156;47.486;12.074;2023-10-09T00:11:57;95713.06;;;11.95;100.00
33859;BME280;20156;47.486;12.074;2023-10-09T00:14:27;95715.47;;;12.03;100.00
33859;BME280;20156;47.486;12.074;2023-10-09T00:17:04;95712.88;;;12.16;100.00
33859;BME280;20156;47.486;12.074;2023-10-09T00:19:35;95715.09;;;12.13;100.00
33859;BME280;20156;47.486;12.074;2023-10-09T00:22:02;95703.84;;;12.19;100.00
33859;BME280;20156;47.486;12.074;2023-10-09T00:24:36;95727.72;;;11.96;100.00
33859;BME280;20156;47.486;12.074;2023-10-09T00:27:06;95731.88;;;11.77;100.00
33859;BME280;20156;47.486;12.074;2023-10-09T00:29:41;95729.28;;;11.84;100.00
33859;BME280;20156;47.486;12.074;2023-10-09T00:32:14;95726.69;;;11.90;100.00
33859;BME280;20156;47.486;12.074;2023-10-09T00:34:44;95706.69;;;12.11;100.00
33859;BME280;20156;47.486;12.074;2023-10-09T00:37:10;95723.50;;;12.08;100.00
33859;BME280;20156;47.486;12.074;2023-10-09T00:39:45;95724.47;;;11.87;100.00
33859;BME280;20156;47.486;12.074;2023-10-09T00:42:13;95727.50;;;11.91;100.00
33859;BME280;20156;47.486;12.074;2023-10-09T00:44:54;95725.09;;;12.02;100.00
33859;BME280;20156;47.486;12.074;2023-10-09T00:47:21;95720.09;;;12.08;100.00
33859;BME280;20156;47.486;12.074;2023-10-09T00:49:52;95716.31;;;12.10;100.00
33859;BME280;20156;47.486;12.074;2023-10-09T00:52:40;95735.47;;;11.76;100.00
33859;BME280;20156;47.486;12.074;2023-10-09T00:55:15;95724.28;;;11.82;100.00
33859;BME280;20156;47.486;12.074;2023-10-09T00:57:47;95727.28;;;11.86;100.00
33859;BME280;20156;47.486;12.074;2023-10-09T01:00:23;95727.09;;;11.87;100.00
33859;BME280;20156;47.486;12.074;2023-10-09T01:03:02;95727.50;;;11.84;100.00
33859;BME280;20156;47.486;12.074;2023-10-09T01:05:58;95742.66;;;11.61;100.00
33859;BME280;20156;47.486;12.074;2023-10-09T01:08:34;95748.66;;;11.61;100.00
33859;BME280;20156;47.486;12.074;2023-10-09T01:11:05;95749.84;;;11.59;100.00
33859;BME280;20156;47.486;12.074;2023-10-09T01:13:38;95751.44;;;11.53;100.00
33859;BME280;20156;47.486;12.074;2023-10-09T01:16:06;95750.28;;;11.62;100.00
33859;BME280;20156;47.486;12.074;2023-10-09T01:18:36;95744.88;;;11.70;100.00
33859;BME280;20156;47.486;12.074;2023-10-09T01:21:02;95746.28;;;11.73;100.00
33859;BME280;20156;47.486;12.074;2023-10-09T01:23:28;95741.88;;;11.73;100.00
33859;BME280;20156;47.486;12.074;2023-10-09T01:25:55;95742.53;;;11.82;100.00
33859;BME280;20156;47.486;12.074;2023-10-09T01:28:20;95732.66;;;11.78;100.00
33859;BME280;20156;47.486;12.074;2023-10-09T01:30:46;95735.84;;;11.73;100.00
33859;BME280;20156;47.486;12.074;2023-10-09T01:33:12;95735.47;;;11.76;100.00
33859;BME280;20156;47.486;12.074;2023-10-09T01:35:42;95732.03;;;11.75;100.00
33859;BME280;20156;47.486;12.074;2023-10-09T01:38:14;95719.47;;;11.79;100.00
33859;BME280;20156;47.486;12.074;2023-10-09T01:40:41;95746.81;;;11.55;100.00
33859;BME280;20156;47.486;12.074;2023-10-09T01:43:06;95758.19;;;11.34;100.00
33859;BME280;20156;47.486;12.074;2023-10-09T01:45:36;95752.03;;;11.49;100.00
33859;BME280;20156;47.486;12.074;2023-10-09T01:48:07;95749.41;;;11.49;100.00
33859;BME280;20156;47.486;12.074;2023-10-09T01:50:33;95750.03;;;11.51;100.00
33859;BME280;20156;47.486;12.074;2023-10-09T01:53:04;95755.03;;;11.52;100.00
33859;BME280;20156;47.486;12.074;2023-10-09T01:55:33;95753.03;;;11.54;100.00
33859;BME280;20156;47.486;12.074;2023-10-09T01:58:06;95776.59;;;11.26;100.00
33859;BME280;20156;47.486;12.074;2023-10-09T02:00:49;95762.59;;;11.34;100.00
33859;BME280;20156;47.486;12.074;2023-10-09T02:03:22;95761.25;;;11.51;100.00
33859;BME280;20156;47.486;12.074;2023-10-09T02:05:52;95773.41;;;11.37;100.00
33859;BME280;20156;47.486;12.074;2023-10-09T02:08:30;95766.81;;;11.41;100.00
33859;BME280;20156;47.486;12.074;2023-10-09T02:11:00;95779.22;;;11.39;100.00
33859;BME280;20156;47.486;12.074;2023-10-09T02:13:27;95781.22;;;11.37;100.00
33859;BME280;20156;47.486;12.074;2023-10-09T02:15:59;95782.28;;;11.50;100.00
33859;BME280;20156;47.486;12.074;2023-10-09T02:18:45;95797.91;;;11.08;100.00
33859;BME280;20156;47.486;12.074;2023-10-09T02:21:24;95808.75;;;11.12;100.00
33859;BME280;20156;47.486;12.074;2023-10-09T02:24:02;95808.16;;;11.17;100.00
33859;BME280;20156;47.486;12.074;2023-10-09T02:26:31;95807.56;;;11.14;100.00
33859;BME280;20156;47.486;12.074;2023-10-09T02:29:25;95803.78;;;11.24;100.00
33859;BME280;20156;47.486;12.074;2023-10-09T02:31:51;95804.19;;;11.21;100.00
33859;BME280;20156;47.486;12.074;2023-10-09T02:34:17;95806.41;;;11.24;100.00
33859;BME280;20156;47.486;12.074;2023-10-09T02:36:52;95808.41;;;11.22;100.00
33859;BME280;20156;47.486;12.074;2023-10-09T02:39:25;95812.47;;;11.31;100.00
33859;BME280;20156;47.486;12.074;2023-10-09T02:41:56;95811.28;;;11.33;100.00
33859;BME280;20156;47.486;12.074;2023-10-09T02:44:40;95799.88;;;11.41;100.00
33859;BME280;20156;47.486;12.074;2023-10-09T02:47:14;95812.59;;;11.23;100.00
33859;BME280;20156;47.486;12.074;2023-10-09T02:50:04;95807.97;;;11.18;100.00
33859;BME280;20156;47.486;12.074;2023-10-09T02:52:45;95795.03;;;11.31;100.00
33859;BME280;20156;47.486;12.074;2023-10-09T02:55:13;95808.16;;;11.10;100.00
33859;BME280;20156;47.486;12.074;2023-10-09T02:57:55;95802.88;;;11.03;100.00
33859;BME280;20156;47.486;12.074;2023-10-09T03:00:45;95796.72;;;11.11;100.00
33859;BME280;20156;47.486;12.074;2023-10-09T03:03:12;95798.94;;;11.14;100.00
33859;BME280;20156;47.486;12.074;2023-10-09T03:05:39;95794.34;;;11.16;100.00
33859;BME280;20156;47.486;12.074;2023-10-09T03:08:07;95802.75;;;11.11;100.00
33859;BME280;20156;47.486;12.074;2023-10-09T03:10:33;95798.34;;;11.12;100.00
33859;BME280;20156;47.486;12.074;2023-10-09T03:12:59;95816.59;;;10.91;100.00
33859;BME280;20156;47.486;12.074;2023-10-09T03:15:25;95822.09;;;10.74;100.00
33859;BME280;20156;47.486;12.074;2023-10-09T03:17:50;95809.94;;;10.81;100.00
33859;BME280;20156;47.486;12.074;2023-10-09T03:20:16;95798.25;;;10.99;100.00
33859;BME280;20156;47.486;12.074;2023-10-09T03:22:44;95800.09;;;11.05;100.00
33859;BME280;20156;47.486;12.074;2023-10-09T03:25:13;95803.50;;;11.05;100.00
33859;BME280;20156;47.486;12.074;2023-10-09T03:27:42;95825.66;;;10.67;100.00
33859;BME280;20156;47.486;12.074;2023-10-09T03:30:11;95819.94;;;10.78;100.00
33859;BME280;20156;47.486;12.074;2023-10-09T03:32:43;95810.97;;;10.87;100.00
33859;BME280;20156;47.486;12.074;2023-10-09T03:35:09;95825.88;;;10.72;100.00
33859;BME280;20156;47.486;12.074;2023-10-09T03:37:39;95828.69;;;10.70;100.00
33859;BME280;20156;47.486;12.074;2023-10-09T03:40:05;95821.16;;;10.82;100.00
33859;BME280;20156;47.486;12.074;2023-10-09T03:42:33;95816.81;;;10.89;100.00
33859;BME280;20156;47.486;12.074;2023-10-09T03:45:01;95830.75;;;10.53;100.00
33859;BME280;20156;47.486;12.074;2023-10-09T03:47:38;95862.34;;;10.50;100.00
33859;BME280;20156;47.486;12.074;2023-10-09T03:50:06;95844.31;;;10.49;100.00
33859;BME280;20156;47.486;12.074;2023-10-09T03:52:49;95841.81;;;10.41;100.00
33859;BME280;20156;47.486;12.074;2023-10-09T03:55:15;95832.09;;;10.49;100.00
33859;BME280;20156;47.486;12.074;2023-10-09T03:57:40;95832.34;;;10.54;100.00
33859;BME280;20156;47.486;12.074;2023-10-09T04:00:07;95825.22;;;10.63;100.00
33859;BME280;20156;47.486;12.074;2023-10-09T04:02:39;95810.13;;;10.80;100.00
33859;BME280;20156;47.486;12.074;2023-10-09T04:05:04;95806.81;;;10.65;100.00
33859;BME280;20156;47.486;12.074;2023-10-09T04:07:32;95832.50;;;10.46;100.00
33859;BME280;20156;47.486;12.074;2023-10-09T04:09:58;95821.41;;;10.59;100.00
33859;BME280;20156;47.486;12.074;2023-10-09T04:12:44;95831.16;;;10.57;100.00
33859;BME280;20156;47.486;12.074;2023-10-09T04:15:09;95831.91;;;10.51;100.00
33859;BME280;20156;47.486;12.074;2023-10-09T04:17:40;95845.31;;;10.27;100.00
33859;BME280;20156;47.486;12.074;2023-10-09T04:20:08;95841.25;;;10.24;100.00
33859;BME280;20156;47.486;12.074;2023-10-09T04:22:43;95838.56;;;10.32;100.00
33859;BME280;20156;47.486;12.074;2023-10-09T04:25:27;95841.09;;;10.26;100.00
33859;BME280;20156;47.486;12.074;2023-10-09T04:28:07;95833.38;;;10.17;100.00
33859;BME280;20156;47.486;12.074;2023-10-09T04:30:47;95834.28;;;10.24;100.00
33859;BME280;20156;47.486;12.074;2023-10-09T04:33:19;95827.41;;;10.38;100.00
33859;BME280;20156;47.486;12.074;2023-10-09T04:35:55;95819.88;;;10.43;100.00
33859;BME280;20156;47.486;12.074;2023-10-09T04:38:44;95834.53;;;10.30;100.00
33859;BME280;20156;47.486;12.074;2023-10-09T04:41:28;95833.53;;;10.31;100.00
33859;BME280;20156;47.486;12.074;2023-10-09T04:43:57;95823.81;;;10.39;100.00
33859;BME280;20156;47.486;12.074;2023-10-09T04:46:45;95839.38;;;10.18;100.00
33859;BME280;20156;47.486;12.074;2023-10-09T04:49:23;95840.94;;;10.12;100.00
33859;BME280;20156;47.486;12.074;2023-10-09T04:51:55;95839.75;;;10.15;100.00
33859;BME280;20156;47.486;12.074;2023-10-09T04:54:32;95841.78;;;10.19;100.00
33859;BME280;20156;47.486;12.074;2023-10-09T04:57:27;95820.06;;;10.42;100.00
33859;BME280;20156;47.486;12.074;2023-10-09T04:59:52;95834.78;;;10.35;100.00
33859;BME280;20156;47.486;12.074;2023-10-09T05:02:19;95844.44;;;10.05;100.00
33859;BME280;20156;47.486;12.074;2023-10-09T05:04:48;95852.69;;;10.08;100.00
33859;BME280;20156;47.486;12.074;2023-10-09T05:07:33;95836.09;;;10.45;100.00
33859;BME280;20156;47.486;12.074;2023-10-09T05:10:17;95859.03;;;10.06;100.00
33859;BME280;20156;47.486;12.074;2023-10-09T05:12:45;95858.50;;;10.10;100.00
33859;BME280;20156;47.486;12.074;2023-10-09T05:15:24;95855.91;;;10.10;100.00
33859;BME280;20156;47.486;12.074;2023-10-09T05:17:55;95872.53;;;9.94;100.00
33859;BME280;20156;47.486;12.074;2023-10-09T05:20:27;95849.44;;;10.06;100.00
33859;BME280;20156;47.486;12.074;2023-10-09T05:22:52;95861.72;;;10.12;100.00
33859;BME280;20156;47.486;12.074;2023-10-09T05:25:28;95858.38;;;10.18;100.00
33859;BME280;20156;47.486;12.074;2023-10-09T05:28:28;95846.34;;;10.53;100.00
33859;BME280;20156;47.486;12.074;2023-10-09T05:30:58;95874.97;;;10.17;100.00
33859;BME280;20156;47.486;12.074;2023-10-09T05:33:55;95884.59;;;10.02;100.00
33859;BME280;20156;47.486;12.074;2023-10-09T05:36:26;95857.63;;;10.39;100.00
33859;BME280;20156;47.486;12.074;2023-10-09T05:38:52;95869.72;;;10.26;100.00
33859;BME280;20156;47.486;12.074;2023-10-09T05:41:36;95884.59;;;10.02;100.00
33859;BME280;20156;47.486;12.074;2023-10-09T05:44:13;95875.00;;;10.03;100.00
33859;BME280;20156;47.486;12.074;2023-10-09T05:46:58;95880.22;;;10.03;100.00
33859;BME280;20156;47.486;12.074;2023-10-09T05:49:42;95873.19;;;10.18;100.00
33859;BME280;20156;47.486;12.074;2023-10-09T05:52:22;95870.19;;;10.36;100.00
33859;BME280;20156;47.486;12.074;2023-10-09T05:55:03;95870.63;;;10.39;100.00
33859;BME280;20156;47.486;12.074;2023-10-09T05:57:35;95871.06;;;10.43;100.00
33859;BME280;20156;47.486;12.074;2023-10-09T06:00:26;95866.59;;;10.58;100.00
33859;BME280;20156;47.486;12.074;2023-10-09T06:03:11;95878.38;;;10.54;100.00
33859;BME280;20156;47.486;12.074;2023-10-09T06:05:52;95891.00;;;10.36;100.00
33859;BME280;20156;47.486;12.074;2023-10-09T06:08:25;95886.88;;;10.41;100.00
33859;BME280;20156;47.486;12.074;2023-10-09T06:11:14;95883.31;;;10.49;100.00
33859;BME280;20156;47.486;12.074;2023-10-09T06:14:01;95880.84;;;10.62;100.00
33859;BME280;20156;47.486;12.074;2023-10-09T06:16:30;95878.38;;;10.75;100.00
33859;BME280;20156;47.486;12.074;2023-10-09T06:19:14;95883.69;;;10.67;100.00
33859;BME280;20156;47.486;12.074;2023-10-09T06:21:57;95893.31;;;10.67;100.00
33859;BME280;20156;47.486;12.074;2023-10-09T06:24:41;95879.72;;;10.93;100.00
33859;BME280;20156;47.486;12.074;2023-10-09T06:27:11;95878.00;;;11.06;100.00
33859;BME280;20156;47.486;12.074;2023-10-09T06:29:38;95872.88;;;11.20;100.00
33859;BME280;20156;47.486;12.074;2023-10-09T06:32:17;95886.31;;;11.23;100.00
33859;BME280;20156;47.486;12.074;2023-10-09T06:34:50;95890.28;;;11.12;100.00
33859;BME280;20156;47.486;12.074;2023-10-09T06:37:25;95889.13;;;11.22;100.00
33859;BME280;20156;47.486;12.074;2023-10-09T06:42:16;95878.81;;;11.35;100.00
33859;BME280;20156;47.486;12.074;2023-10-09T06:45:12;95878.09;;;11.48;100.00
33859;BME280;20156;47.486;12.074;2023-10-09T06:47:47;95872.28;;;11.52;100.00
33859;BME280;20156;47.486;12.074;2023-10-09T06:50:43;95866.75;;;11.68;100.00
33859;BME280;20156;47.486;12.074;2023-10-09T06:53:21;95866.66;;;11.83;100.00
33859;BME280;20156;47.486;12.074;2023-10-09T06:55:53;95860.63;;;11.83;100.00
33859;BME280;20156;47.486;12.074;2023-10-09T06:58:39;95867.28;;;11.92;100.00
33859;BME280;20156;47.486;12.074;2023-10-09T07:01:13;95861.13;;;12.06;100.00
33859;BME280;20156;47.486;12.074;2023-10-09T07:04:08;95867.66;;;11.89;100.00
33859;BME280;20156;47.486;12.074;2023-10-09T07:06:52;95856.88;;;11.98;100.00
33859;BME280;20156;47.486;12.074;2023-10-09T07:09:18;95851.91;;;12.10;100.00
33859;BME280;20156;47.486;12.074;2023-10-09T07:11:46;95844.75;;;12.32;100.00
33859;BME280;20156;47.486;12.074;2023-10-09T07:14:19;95834.94;;;12.54;100.00
33859;BME280;20156;47.486;12.074;2023-10-09T07:17:00;95843.75;;;12.53;100.00
33859;BME280;20156;47.486;12.074;2023-10-09T07:19:26;95838.13;;;12.76;100.00
33859;BME280;20156;47.486;12.074;2023-10-09T07:22:01;95825.69;;;12.84;100.00
33859;BME280;20156;47.486;12.074;2023-10-09T07:24:30;95832.50;;;12.92;100.00
33859;BME280;20156;47.486;12.074;2023-10-09T07:27:16;95818.84;;;12.90;100.00
33859;BME280;20156;47.486;12.074;2023-10-09T07:29:43;95806.78;;;13.15;100.00
33859;BME280;20156;47.486;12.074;2023-10-09T07:32:17;95808.59;;;13.21;100.00
33859;BME280;20156;47.486;12.074;2023-10-09T07:34:46;95808.38;;;13.36;100.00
33859;BME280;20156;47.486;12.074;2023-10-09T07:37:22;95804.53;;;13.45;100.00
33859;BME280;20156;47.486;12.074;2023-10-09T07:39:51;95792.59;;;13.63;100.00
33859;BME280;20156;47.486;12.074;2023-10-09T07:42:24;95788.88;;;13.83;100.00
33859;BME280;20156;47.486;12.074;2023-10-09T07:45:12;95788.03;;;13.90;100.00
33859;BME280;20156;47.486;12.074;2023-10-09T07:47:59;95776.34;;;13.92;100.00
33859;BME280;20156;47.486;12.074;2023-10-09T07:50:24;95793.16;;;14.09;100.00
33859;BME280;20156;47.486;12.074;2023-10-09T07:52:55;95769.88;;;14.33;100.00
33859;BME280;20156;47.486;12.074;2023-10-09T07:55:40;95761.75;;;14.48;100.00
33859;BME280;20156;47.486;12.074;2023-10-09T07:58:11;95754.47;;;14.50;100.00
33859;BME280;20156;47.486;12.074;2023-10-09T08:00:40;95742.41;;;14.49;100.00
33859;BME280;20156;47.486;12.074;2023-10-09T08:03:31;95740.50;;;14.81;100.00
33859;BME280;20156;47.486;12.074;2023-10-09T08:05:59;95730.50;;;14.96;100.00
33859;BME280;20156;47.486;12.074;2023-10-09T08:08:44;95725.16;;;15.21;100.00
33859;BME280;20156;47.486;12.074;2023-10-09T08:11:30;95736.81;;;15.25;100.00
33859;BME280;20156;47.486;12.074;2023-10-09T08:14:05;95737.19;;;15.47;100.00
33859;BME280;20156;47.486;12.074;2023-10-09T08:16:45;95725.94;;;15.58;100.00
33859;BME280;20156;47.486;12.074;2023-10-09T08:19:11;95727.50;;;15.66;100.00
33859;BME280;20156;47.486;12.074;2023-10-09T08:21:58;95718.25;;;16.05;100.00
33859;BME280;20156;47.486;12.074;2023-10-09T08:24:59;95724.41;;;15.99;100.00
33859;BME280;20156;47.486;12.074;2023-10-09T08:27:28;95715.66;;;16.16;100.00
33859;BME280;20156;47.486;12.074;2023-10-09T08:29:54;95730.97;;;16.19;100.00
33859;BME280;20156;47.486;12.074;2023-10-09T08:32:37;95733.13;;;16.22;100.00
33859;BME280;20156;47.486;12.074;2023-10-09T08:35:08;95724.84;;;16.49;100.00
33859;BME280;20156;47.486;12.074;2023-10-09T08:37:54;95720.53;;;16.78;100.00
33859;BME280;20156;47.486;12.074;2023-10-09T08:43:09;95719.84;;;16.94;100.00
33859;BME280;20156;47.486;12.074;2023-10-09T08:45:39;95714.75;;;17.28;100.00
33859;BME280;20156;47.486;12.074;2023-10-09T08:48:08;95721.97;;;17.61;100.00
33859;BME280;20156;47.486;12.074;2023-10-09T08:50:41;95703.19;;;17.81;100.00
33859;BME280;20156;47.486;12.074;2023-10-09T08:53:09;95705.75;;;17.92;100.00
33859;BME280;20156;47.486;12.074;2023-10-09T08:55:37;95706.47;;;17.88;100.00
33859;BME280;20156;47.486;12.074;2023-10-09T08:58:04;95700.00;;;17.95;100.00
33859;BME280;20156;47.486;12.074;2023-10-09T09:00:37;95710.75;;;18.39;100.00
33859;BME280;20156;47.486;12.074;2023-10-09T09:03:04;95742.88;;;18.53;100.00
33859;BME280;20156;47.486;12.074;2023-10-09T09:05:30;95734.53;;;18.61;100.00
33859;BME280;20156;47.486;12.074;2023-10-09T09:07:55;95693.06;;;18.90;100.00
33859;BME280;20156;47.486;12.074;2023-10-09T09:10:31;95682.34;;;18.97;100.00
33859;BME280;20156;47.486;12.074;2023-10-09T09:13:04;95734.28;;;18.96;100.00
33859;BME280;20156;47.486;12.074;2023-10-09T09:15:32;95741.56;;;19.06;100.00
33859;BME280;20156;47.486;12.074;2023-10-09T09:18:08;95739.13;;;19.43;100.00
33859;BME280;20156;47.486;12.074;2023-10-09T09:20:42;95740.56;;;19.50;100.00
33859;BME280;20156;47.486;12.074;2023-10-09T09:23:10;95752.91;;;19.89;100.00
33859;BME280;20156;47.486;12.074;2023-10-09T09:25:47;95767.66;;;19.85;100.00
33859;BME280;20156;47.486;12.074;2023-10-09T09:28:15;95769.75;;;20.09;100.00
33859;BME280;20156;47.486;12.074;2023-10-09T09:30:47;95761.66;;;20.43;100.00
33859;BME280;20156;47.486;12.074;2023-10-09T09:33:26;95803.03;;;20.59;100.00
33859;BME280;20156;47.486;12.074;2023-10-09T09:36:06;95785.66;;;21.00;100.00
33859;BME280;20156;47.486;12.074;2023-10-09T09:38:33;95802.06;;;21.45;100.00
33859;BME280;20156;47.486;12.074;2023-10-09T09:41:16;95849.88;;;20.96;100.00
33859;BME280;20156;47.486;12.074;2023-10-09T09:43:55;95844.41;;;20.70;100.00
33859;BME280;20156;47.486;12.074;2023-10-09T09:46:22;95854.91;;;20.92;100.00
33859;BME280;20156;47.486;12.074;2023-10-09T09:49:00;95823.25;;;21.08;100.00
33859;BME280;20156;47.486;12.074;2023-10-09T09:51:25;95810.81;;;21.45;100.00
33859;BME280;20156;47.486;12.074;2023-10-09T09:53:54;95827.56;;;21.51;100.00
33859;BME280;20156;47.486;12.074;2023-10-09T09:56:23;95837.84;;;21.47;100.00
33859;BME280;20156;47.486;12.074;2023-10-09T09:58:50;95830.59;;;21.32;100.00
33859;BME280;20156;47.486;12.074;2023-10-09T10:01:41;95867.75;;;21.11;100.00
33859;BME280;20156;47.486;12.074;2023-10-09T10:04:11;95875.16;;;20.82;100.00
33859;BME280;20156;47.486;12.074;2023-10-09T10:06:40;95865.56;;;21.02;100.00
33859;BME280;20156;47.486;12.074;2023-10-09T10:09:10;95866.66;;;21.07;100.00
33859;BME280;20156;47.486;12.074;2023-10-09T10:11:57;95872.41;;;21.30;100.00
33859;BME280;20156;47.486;12.074;2023-10-09T10:14:58;95862.53;;;21.53;100.00
33859;BME280;20156;47.486;12.074;2023-10-09T10:20:24;95858.03;;;21.53;100.00
33859;BME280;20156;47.486;12.074;2023-10-09T10:22:50;95862.13;;;21.81;100.00
33859;BME280;20156;47.486;12.074;2023-10-09T10:25:45;95845.94;;;21.78;100.00
33859;BME280;20156;47.486;12.074;2023-10-09T10:28:26;95873.69;;;22.12;100.00
33859;BME280;20156;47.486;12.074;2023-10-09T10:31:03;95835.66;;;21.86;100.00
33859;BME280;20156;47.486;12.074;2023-10-09T10:36:25;95829.44;;;21.60;100.00
33859;BME280;20156;47.486;12.074;2023-10-09T10:39:10;95833.13;;;22.17;100.00
33859;BME280;20156;47.486;12.074;2023-10-09T10:41:37;95832.69;;;22.50;100.00
33859;BME280;20156;47.486;12.074;2023-10-09T10:44:24;95817.09;;;23.10;100.00
33859;BME280;20156;47.486;12.074;2023-10-09T10:47:26;95818.38;;;23.43;100.00
33859;BME280;20156;47.486;12.074;2023-10-09T10:49:58;95775.06;;;23.53;100.00
33859;BME280;20156;47.486;12.074;2023-10-09T10:52:27;95758.06;;;23.44;100.00
33859;BME280;20156;47.486;12.074;2023-10-09T10:55:11;95724.47;;;23.03;100.00
33859;BME280;20156;47.486;12.074;2023-10-09T10:57:55;95768.53;;;22.94;100.00
33859;BME280;20156;47.486;12.074;2023-10-09T11:00:35;95759.22;;;22.76;100.00
33859;BME280;20156;47.486;12.074;2023-10-09T11:03:20;95763.44;;;22.21;100.00
33859;BME280;20156;47.486;12.074;2023-10-09T11:05:55;95754.13;;;22.14;100.00
33859;BME280;20156;47.486;12.074;2023-10-09T11:08:25;95758.84;;;21.97;100.00
33859;BME280;20156;47.486;12.074;2023-10-09T11:11:17;95757.25;;;21.96;100.00
33859;BME280;20156;47.486;12.074;2023-10-09T11:14:09;95753.59;;;22.07;100.00
33859;BME280;20156;47.486;12.074;2023-10-09T11:16:39;95718.81;;;21.88;100.00
33859;BME280;20156;47.486;12.074;2023-10-09T11:19:12;95737.06;;;21.74;100.00
33859;BME280;20156;47.486;12.074;2023-10-09T11:21:57;95757.13;;;21.60;100.00
33859;BME280;20156;47.486;12.074;2023-10-09T11:24:33;95756.84;;;21.51;100.00
33859;BME280;20156;47.486;12.074;2023-10-09T11:27:03;95744.59;;;22.08;100.00
33859;BME280;20156;47.486;12.074;2023-10-09T11:29:36;95702.97;;;22.34;100.00
33859;BME280;20156;47.486;12.074;2023-10-09T11:32:20;95730.31;;;22.39;100.00
33859;BME280;20156;47.486;12.074;2023-10-09T11:35:01;95711.47;;;22.71;100.00
33859;BME280;20156;47.486;12.074;2023-10-09T11:37:33;95693.44;;;22.48;100.00
33859;BME280;20156;47.486;12.074;2023-10-09T11:40:30;95690.78;;;22.73;100.00
33859;BME280;20156;47.486;12.074;2023-10-09T11:43:15;95698.25;;;22.36;100.00
33859;BME280;20156;47.486;12.074;2023-10-09T11:45:40;95740.28;;;21.97;100.00
33859;BME280;20156;47.486;12.074;2023-10-09T11:48:20;95728.19;;;22.21;100.00
33859;BME280;20156;47.486;12.074;2023-10-09T11:51:21;95732.66;;;22.10;100.00
33859;BME280;20156;47.486;12.074;2023-10-09T11:53:46;95735.06;;;22.17;100.00
33859;BME280;20156;47.486;12.074;2023-10-09T11:56:15;95694.97;;;21.98;100.00
33859;BME280;20156;47.486;12.074;2023-10-09T11:58:47;95681.91;;;21.51;100.00
33859;BME280;20156;47.486;12.074;2023-10-09T12:01:15;95690.97;;;21.80;100.00
33859;BME280;20156;47.486;12.074;2023-10-09T12:03:46;95691.72;;;21.66;100.00
33859;BME280;20156;47.486;12.074;2023-10-09T12:06:16;95647.53;;;21.09;100.00
33859;BME280;20156;47.486;12.074;2023-10-09T12:08:45;95567.22;;;21.40;100.00
33859;BME280;20156;47.486;12.074;2023-10-09T12:11:13;95529.09;;;21.36;100.00
33859;BME280;20156;47.486;12.074;2023-10-09T12:13:41;95524.97;;;20.93;100.00
33859;BME280;20156;47.486;12.074;2023-10-09T12:16:10;95554.13;;;21.03;100.00
33859;BME280;20156;47.486;12.074;2023-10-09T12:18:37;95567.47;;;21.39;100.00
33859;BME280;20156;47.486;12.074;2023-10-09T12:21:07;95492.53;;;21.28;100.00
33859;BME280;20156;47.486;12.074;2023-10-09T12:23:32;95470.53;;;21.22;100.00
33859;BME280;20156;47.486;12.074;2023-10-09T12:26:02;95461.53;;;21.18;100.00
33859;BME280;20156;47.486;12.074;2023-10-09T12:28:27;95424.22;;;21.05;100.00
33859;BME280;20156;47.486;12.074;2023-10-09T12:30:53;95468.44;;;21.45;100.00
33859;BME280;20156;47.486;12.074;2023-10-09T12:33:20;95459.97;;;21.43;100.00
33859;BME280;20156;47.486;12.074;2023-10-09T12:35:53;95443.56;;;21.30;100.00
33859;BME280;20156;47.486;12.074;2023-10-09T12:38:18;95450.94;;;21.23;100.00
33859;BME280;20156;47.486;12.074;2023-10-09T12:40:47;95494.66;;;21.41;100.00
33859;BME280;20156;47.486;12.074;2023-10-09T12:43:19;95465.50;;;21.82;100.00
33859;BME280;20156;47.486;12.074;2023-10-09T12:45:47;95473.22;;;21.63;100.00
33859;BME280;20156;47.486;12.074;2023-10-09T12:48:12;95510.81;;;21.60;100.00
33859;BME280;20156;47.486;12.074;2023-10-09T12:50:39;95557.44;;;21.71;100.00
33859;BME280;20156;47.486;12.074;2023-10-09T12:53:10;95500.44;;;21.99;100.00
33859;BME280;20156;47.486;12.074;2023-10-09T12:55:40;95480.09;;;21.84;100.00
33859;BME280;20156;47.486;12.074;2023-10-09T12:58:10;95452.22;;;21.97;100.00
33859;BME280;20156;47.486;12.074;2023-10-09T13:00:40;95504.88;;;22.44;100.00
33859;BME280;20156;47.486;12.074;2023-10-09T13:03:10;95559.50;;;22.50;100.00
33859;BME280;20156;47.486;12.074;2023-10-09T13:05:48;95581.78;;;22.55;100.00
33859;BME280;20156;47.486;12.074;2023-10-09T13:08:27;95590.28;;;22.51;100.00
33859;BME280;20156;47.486;12.074;2023-10-09T13:11:01;95539.41;;;22.24;100.00
33859;BME280;20156;47.486;12.074;2023-10-09T13:13:30;95519.00;;;22.35;100.00
33859;BME280;20156;47.486;12.074;2023-10-09T13:16:18;95452.44;;;22.26;100.00
33859;BME280;20156;47.486;12.074;2023-10-09T13:18:50;95325.03;;;22.07;100.00
33859;BME280;20156;47.486;12.074;2023-10-09T13:21:19;95349.25;;;21.70;100.00
33859;BME280;20156;47.486;12.074;2023-10-09T13:23:45;95350.53;;;21.78;100.00
33859;BME280;20156;47.486;12.074;2023-10-09T13:26:16;95379.97;;;21.76;100.00
33859;BME280;20156;47.486;12.074;2023-10-09T13:28:48;95442.44;;;21.82;100.00